createdAt,value
2022-09-26T00:00:21.878Z,91.65
2022-09-26T00:01:21.935Z,91.75
2022-09-26T00:02:21.879Z,91.75
2022-09-26T00:03:21.837Z,91.75
2022-09-26T00:04:23.470Z,91.75
2022-09-26T00:05:21.803Z,91.75
2022-09-26T00:06:21.815Z,91.85
2022-09-26T00:07:21.788Z,91.96
2022-09-26T00:08:21.763Z,91.85
2022-09-26T00:09:21.754Z,91.85
2022-09-26T00:10:21.738Z,91.85
2022-09-26T00:11:21.726Z,91.96
2022-09-26T00:12:21.736Z,91.65
2022-09-26T00:13:21.694Z,91.75
2022-09-26T00:14:21.684Z,91.96
2022-09-26T00:15:21.677Z,91.96
2022-09-26T00:16:21.682Z,91.96
2022-09-26T00:17:21.645Z,92.05
2022-09-26T00:18:21.638Z,92.05
2022-09-26T00:19:21.624Z,92.16
2022-09-26T00:20:21.618Z,91.85
2022-09-26T00:21:21.592Z,91.96
2022-09-26T00:22:21.633Z,92.16
2022-09-26T00:23:21.564Z,92.30
2022-09-26T00:24:21.567Z,92.41
2022-09-26T00:25:21.537Z,92.41
2022-09-26T00:26:21.549Z,92.41
2022-09-26T00:27:21.520Z,92.41
2022-09-26T00:28:21.512Z,92.36
2022-09-26T00:29:21.498Z,92.41
2022-09-26T00:30:21.580Z,92.50
2022-09-26T00:31:21.598Z,92.61
2022-09-26T00:32:21.450Z,92.71
2022-09-26T00:33:21.434Z,92.71
2022-09-26T00:34:21.423Z,92.71
2022-09-26T00:35:21.419Z,92.61
2022-09-26T00:36:29.675Z,92.71
2022-09-26T00:37:22.382Z,92.71
2022-09-26T00:38:21.381Z,92.81
2022-09-26T00:39:21.368Z,92.91
2022-09-26T00:40:21.508Z,93.12
2022-09-26T00:41:21.342Z,93.22
2022-09-26T00:42:21.330Z,93.32
2022-09-26T00:43:21.309Z,93.32
2022-09-26T00:44:21.299Z,93.43
2022-09-26T00:45:21.289Z,93.43
2022-09-26T00:46:21.325Z,93.43
2022-09-26T00:47:21.270Z,93.52
2022-09-26T00:48:21.244Z,93.52
2022-09-26T00:49:21.238Z,93.52
2022-09-26T00:50:21.225Z,93.63
2022-09-26T00:51:21.222Z,93.43
2022-09-26T00:52:21.197Z,93.43
2022-09-26T00:53:21.187Z,93.43
2022-09-26T00:54:21.195Z,93.52
2022-09-26T00:55:21.170Z,93.52
2022-09-26T00:56:21.147Z,93.43
2022-09-26T00:57:21.137Z,93.43
2022-09-26T00:58:21.135Z,93.32
2022-09-26T00:59:21.103Z,93.43
2022-09-26T01:00:21.105Z,93.52
2022-09-26T01:01:21.157Z,93.67
2022-09-26T01:02:21.182Z,93.67
2022-09-26T01:03:21.056Z,93.67
2022-09-26T01:04:21.050Z,93.77
2022-09-26T01:05:21.024Z,93.88
2022-09-26T01:06:21.040Z,93.88
2022-09-26T01:07:21.006Z,93.88
2022-09-26T01:08:20.997Z,93.98
2022-09-26T01:09:20.974Z,94.08
2022-09-26T01:10:20.976Z,94.18
2022-09-26T01:11:20.945Z,94.08
2022-09-26T01:12:20.963Z,94.18
2022-09-26T01:13:20.913Z,94.18
2022-09-26T01:14:20.934Z,94.18
2022-09-26T01:15:20.898Z,94.18
2022-09-26T01:16:20.928Z,93.98
2022-09-26T01:17:20.871Z,93.88
2022-09-26T01:18:20.868Z,93.98
2022-09-26T01:19:20.861Z,94.08
2022-09-26T01:20:20.930Z,94.08
2022-09-26T01:21:20.824Z,94.08
2022-09-26T01:22:20.805Z,94.08
2022-09-26T01:23:20.791Z,93.88
2022-09-26T01:24:20.782Z,93.88
2022-09-26T01:25:20.762Z,93.98
2022-09-26T01:26:20.761Z,93.88
2022-09-26T01:27:20.750Z,93.77
2022-09-26T01:28:20.722Z,93.88
2022-09-26T01:29:20.722Z,93.98
2022-09-26T01:30:20.701Z,94.08
2022-09-26T01:31:20.739Z,93.98
2022-09-26T01:32:20.814Z,93.98
2022-09-26T01:33:20.660Z,94.08
2022-09-26T01:34:20.660Z,94.08
2022-09-26T01:35:20.682Z,94.08
2022-09-26T01:36:20.632Z,94.08
2022-09-26T01:37:20.760Z,94.18
2022-09-26T01:38:20.603Z,94.29
2022-09-26T01:39:20.589Z,94.29
2022-09-26T01:40:20.617Z,94.08
2022-09-26T01:41:20.560Z,93.88
2022-09-26T01:42:20.559Z,93.67
2022-09-26T01:43:20.540Z,93.67
2022-09-26T01:44:20.529Z,93.77
2022-09-26T01:45:20.517Z,93.67
2022-09-26T01:46:20.531Z,93.57
2022-09-26T01:47:20.489Z,93.57
2022-09-26T01:48:20.469Z,93.67
2022-09-26T01:49:20.471Z,93.77
2022-09-26T01:50:20.439Z,93.88
2022-09-26T01:51:20.442Z,93.77
2022-09-26T01:52:20.419Z,93.67
2022-09-26T01:53:20.416Z,93.47
2022-09-26T01:54:20.397Z,93.47
2022-09-26T01:55:20.402Z,93.47
2022-09-26T01:56:20.397Z,93.37
2022-09-26T01:57:20.367Z,93.26
2022-09-26T01:58:20.346Z,93.37
2022-09-26T01:59:20.325Z,93.26
2022-09-26T02:00:20.310Z,93.06
2022-09-26T02:01:20.365Z,92.96
2022-09-26T02:02:20.316Z,92.96
2022-09-26T02:03:20.287Z,92.76
2022-09-26T02:04:20.265Z,92.76
2022-09-26T02:05:20.258Z,92.65
2022-09-26T02:06:20.253Z,92.86
2022-09-26T02:07:20.224Z,92.65
2022-09-26T02:08:20.208Z,92.55
2022-09-26T02:09:20.194Z,92.65
2022-09-26T02:10:20.176Z,92.55
2022-09-26T02:11:20.176Z,92.35
2022-09-26T02:12:20.154Z,92.45
2022-09-26T02:13:20.144Z,92.50
2022-09-26T02:14:20.146Z,92.20
2022-09-26T02:15:20.123Z,92.00
2022-09-26T02:16:20.167Z,92.10
2022-09-26T02:17:20.094Z,92.20
2022-09-26T02:18:20.096Z,92.14
2022-09-26T02:19:20.073Z,92.35
2022-09-26T02:20:20.054Z,92.35
2022-09-26T02:21:20.042Z,92.20
2022-09-26T02:22:20.033Z,92.00
2022-09-26T02:23:20.027Z,92.10
2022-09-26T02:24:20.010Z,92.20
2022-09-26T02:25:20.072Z,92.10
2022-09-26T02:26:19.995Z,92.20
2022-09-26T02:27:19.960Z,92.00
2022-09-26T02:28:19.953Z,91.89
2022-09-26T02:29:19.952Z,92.10
2022-09-26T02:30:19.954Z,92.00
2022-09-26T02:31:19.999Z,92.10
2022-09-26T02:32:19.972Z,92.00
2022-09-26T02:33:19.887Z,92.10
2022-09-26T02:34:19.887Z,92.10
2022-09-26T02:35:19.880Z,92.10
2022-09-26T02:36:19.852Z,92.20
2022-09-26T02:37:19.839Z,92.10
2022-09-26T02:38:19.819Z,92.10
2022-09-26T02:39:19.835Z,92.10
2022-09-26T02:40:19.827Z,92.10
2022-09-26T02:41:19.812Z,92.10
2022-09-26T02:42:19.778Z,92.10
2022-09-26T02:43:19.750Z,92.10
2022-09-26T02:44:19.757Z,92.10
2022-09-26T02:45:19.742Z,92.10
2022-09-26T02:46:19.783Z,92.20
2022-09-26T02:47:19.719Z,92.20
2022-09-26T02:48:19.699Z,92.20
2022-09-26T02:49:19.675Z,92.00
2022-09-26T02:50:19.736Z,91.89
2022-09-26T02:51:19.646Z,92.04
2022-09-26T02:52:19.640Z,92.14
2022-09-26T02:53:19.627Z,92.14
2022-09-26T02:54:19.617Z,92.14
2022-09-26T02:55:19.605Z,92.10
2022-09-26T02:56:19.579Z,92.10
2022-09-26T02:57:20.297Z,92.14
2022-09-26T02:58:19.555Z,92.20
2022-09-26T02:59:19.548Z,92.20
2022-09-26T03:00:19.601Z,92.10
2022-09-26T03:01:19.600Z,92.20
2022-09-26T03:02:19.517Z,92.20
2022-09-26T03:03:19.503Z,92.20
2022-09-26T03:04:19.527Z,92.20
2022-09-26T03:05:19.475Z,92.30
2022-09-26T03:06:19.455Z,92.10
2022-09-26T03:07:19.447Z,92.24
2022-09-26T03:08:19.443Z,92.24
2022-09-26T03:09:19.981Z,92.45
2022-09-26T03:10:19.417Z,92.45
2022-09-26T03:11:19.394Z,92.65
2022-09-26T03:12:19.380Z,92.55
2022-09-26T03:13:19.387Z,92.55
2022-09-26T03:14:19.355Z,92.55
2022-09-26T03:15:19.353Z,92.55
2022-09-26T03:16:19.390Z,92.65
2022-09-26T03:17:19.312Z,92.55
2022-09-26T03:18:19.313Z,92.55
2022-09-26T03:19:19.290Z,92.55
2022-09-26T03:20:19.273Z,92.55
2022-09-26T03:21:19.261Z,92.45
2022-09-26T03:22:19.562Z,92.45
2022-09-26T03:23:19.256Z,92.55
2022-09-26T03:24:19.225Z,92.86
2022-09-26T03:25:19.210Z,92.96
2022-09-26T03:26:19.202Z,92.86
2022-09-26T03:27:19.184Z,92.76
2022-09-26T03:28:19.190Z,92.76
2022-09-26T03:29:19.176Z,92.86
2022-09-26T03:30:19.146Z,92.96
2022-09-26T03:31:19.196Z,92.86
2022-09-26T03:32:19.124Z,92.96
2022-09-26T03:33:19.117Z,93.16
2022-09-26T03:34:19.109Z,92.96
2022-09-26T03:35:19.075Z,92.96
2022-09-26T03:36:19.067Z,92.86
2022-09-26T03:37:19.052Z,92.76
2022-09-26T03:38:19.038Z,92.76
2022-09-26T03:39:19.034Z,92.96
2022-09-26T03:40:19.053Z,92.96
2022-09-26T03:41:19.028Z,93.16
2022-09-26T03:42:18.981Z,93.26
2022-09-26T03:43:18.967Z,93.26
2022-09-26T03:44:18.987Z,93.26
2022-09-26T03:45:18.946Z,93.16
2022-09-26T03:46:19.045Z,92.96
2022-09-26T03:47:18.928Z,92.96
2022-09-26T03:48:18.908Z,93.06
2022-09-26T03:49:19.091Z,93.16
2022-09-26T03:50:18.886Z,93.06
2022-09-26T03:51:18.869Z,93.06
2022-09-26T03:52:18.868Z,93.06
2022-09-26T03:53:18.849Z,93.16
2022-09-26T03:54:18.847Z,93.16
2022-09-26T03:55:18.817Z,93.26
2022-09-26T03:56:18.814Z,93.16
2022-09-26T03:57:18.805Z,93.26
2022-09-26T03:58:18.791Z,93.16
2022-09-26T03:59:18.796Z,93.26
2022-09-26T04:00:18.804Z,93.26
2022-09-26T04:01:18.789Z,93.26
2022-09-26T04:02:18.840Z,93.26
2022-09-26T04:03:18.805Z,93.37
2022-09-26T04:04:18.741Z,93.26
2022-09-26T04:05:18.753Z,93.26
2022-09-26T04:06:18.695Z,93.37
2022-09-26T04:07:18.695Z,93.37
2022-09-26T04:08:18.675Z,93.37
2022-09-26T04:09:19.225Z,93.26
2022-09-26T04:10:18.635Z,93.26
2022-09-26T04:11:18.653Z,93.37
2022-09-26T04:12:18.628Z,93.26
2022-09-26T04:13:46.583Z,93.31
2022-09-26T04:14:19.593Z,93.62
2022-09-26T04:15:18.564Z,93.51
2022-09-26T04:16:18.596Z,93.62
2022-09-26T04:17:18.543Z,93.62
2022-09-26T04:18:18.526Z,93.71
2022-09-26T04:19:18.518Z,93.71
2022-09-26T04:20:18.498Z,93.82
2022-09-26T04:21:18.483Z,93.92
2022-09-26T04:22:18.472Z,94.02
2022-09-26T04:23:18.453Z,94.02
2022-09-26T04:24:18.451Z,94.02
2022-09-26T04:25:18.441Z,94.23
2022-09-26T04:26:22.726Z,94.33
2022-09-26T04:27:19.419Z,94.23
2022-09-26T04:28:18.394Z,94.37
2022-09-26T04:29:18.381Z,94.48
2022-09-26T04:30:18.385Z,94.48
2022-09-26T04:31:18.504Z,94.58
2022-09-26T04:32:18.360Z,94.78
2022-09-26T04:33:18.341Z,94.98
2022-09-26T04:34:19.654Z,95.09
2022-09-26T04:35:18.330Z,94.98
2022-09-26T04:36:18.313Z,95.09
2022-09-26T04:37:18.318Z,94.98
2022-09-26T04:38:18.272Z,95.09
2022-09-26T04:39:18.260Z,95.19
2022-09-26T04:40:18.363Z,95.19
2022-09-26T04:41:18.231Z,95.39
2022-09-26T04:42:18.209Z,95.50
2022-09-26T04:43:18.199Z,95.50
2022-09-26T04:44:18.178Z,95.50
2022-09-26T04:45:18.241Z,95.50
2022-09-26T04:46:21.814Z,95.54
2022-09-26T04:47:18.185Z,95.64
2022-09-26T04:48:18.148Z,95.70
2022-09-26T04:49:18.343Z,95.70
2022-09-26T04:50:18.108Z,95.70
2022-09-26T04:51:18.108Z,95.70
2022-09-26T04:52:18.085Z,95.70
2022-09-26T04:53:18.067Z,95.60
2022-09-26T04:54:18.055Z,95.85
2022-09-26T04:55:18.092Z,95.95
2022-09-26T04:56:18.035Z,95.95
2022-09-26T04:57:19.918Z,96.05
2022-09-26T04:58:18.057Z,96.15
2022-09-26T04:59:17.997Z,96.15
2022-09-26T05:00:17.991Z,96.26
2022-09-26T05:01:18.074Z,96.36
2022-09-26T05:02:17.990Z,96.46
2022-09-26T05:03:17.949Z,96.46
2022-09-26T05:04:18.007Z,96.77
2022-09-26T05:05:17.980Z,96.42
2022-09-26T05:06:24.913Z,96.01
2022-09-26T05:07:17.909Z,95.80
2022-09-26T05:08:17.898Z,95.70
2022-09-26T05:09:17.876Z,95.39
2022-09-26T05:10:17.999Z,95.70
2022-09-26T05:11:17.845Z,95.60
2022-09-26T05:12:17.827Z,95.70
2022-09-26T05:13:17.818Z,95.80
2022-09-26T05:14:17.795Z,95.95
2022-09-26T05:15:17.818Z,96.05
2022-09-26T05:16:17.896Z,96.05
2022-09-26T05:17:17.778Z,96.15
2022-09-26T05:18:17.758Z,96.26
2022-09-26T05:19:17.797Z,96.36
2022-09-26T05:20:17.746Z,96.26
2022-09-26T05:21:17.720Z,96.46
2022-09-26T05:22:17.710Z,96.46
2022-09-26T05:23:17.826Z,96.46
2022-09-26T05:24:17.663Z,96.46
2022-09-26T05:25:17.677Z,96.26
2022-09-26T05:26:17.707Z,96.46
2022-09-26T05:27:17.632Z,96.46
2022-09-26T05:28:17.618Z,96.56
2022-09-26T05:29:17.634Z,96.46
2022-09-26T05:30:17.635Z,96.46
2022-09-26T05:31:17.635Z,96.36
2022-09-26T05:32:17.578Z,96.46
2022-09-26T05:33:17.623Z,96.15
2022-09-26T05:34:20.098Z,96.05
2022-09-26T05:35:17.558Z,96.05
2022-09-26T05:36:17.514Z,95.95
2022-09-26T05:37:17.496Z,95.75
2022-09-26T05:38:17.490Z,95.64
2022-09-26T05:39:17.469Z,95.44
2022-09-26T05:40:17.547Z,95.64
2022-09-26T05:41:17.443Z,95.50
2022-09-26T05:42:17.440Z,95.60
2022-09-26T05:43:17.422Z,95.19
2022-09-26T05:44:17.440Z,95.29
2022-09-26T05:45:17.412Z,95.09
2022-09-26T05:46:17.469Z,95.90
2022-09-26T05:47:17.404Z,95.86
2022-09-26T05:48:17.396Z,95.76
2022-09-26T05:49:17.394Z,95.81
2022-09-26T05:50:17.377Z,93.73
2022-09-26T05:51:17.422Z,93.73
2022-09-26T05:52:17.328Z,93.52
2022-09-26T05:53:17.323Z,92.50
2022-09-26T05:54:17.331Z,92.00
2022-09-26T05:55:17.309Z,91.59
2022-09-26T05:56:19.350Z,92.71
2022-09-26T05:57:17.302Z,93.12
2022-09-26T05:58:17.263Z,92.41
2022-09-26T05:59:17.230Z,92.41
2022-09-26T06:00:17.316Z,91.39
2022-09-26T06:01:17.336Z,91.08
2022-09-26T06:02:20.693Z,91.28
2022-09-26T06:03:17.160Z,90.98
2022-09-26T06:04:17.163Z,91.22
2022-09-26T06:05:17.130Z,91.53
2022-09-26T06:06:17.132Z,91.74
2022-09-26T06:07:17.119Z,92.04
2022-09-26T06:08:17.110Z,92.19
2022-09-26T06:09:17.328Z,92.29
2022-09-26T06:10:17.066Z,92.49
2022-09-26T06:11:17.067Z,92.49
2022-09-26T06:12:17.094Z,92.59
2022-09-26T06:13:17.039Z,92.59
2022-09-26T06:14:17.027Z,92.69
2022-09-26T06:15:17.006Z,92.69
2022-09-26T06:16:17.036Z,92.69
2022-09-26T06:17:16.974Z,92.69
2022-09-26T06:18:16.963Z,92.59
2022-09-26T06:19:22.000Z,92.45
2022-09-26T06:20:17.943Z,92.45
2022-09-26T06:21:16.948Z,92.24
2022-09-26T06:22:16.903Z,92.24
2022-09-26T06:23:16.901Z,92.04
2022-09-26T06:24:16.882Z,92.04
2022-09-26T06:25:16.876Z,92.04
2022-09-26T06:26:16.863Z,91.94
2022-09-26T06:27:16.860Z,91.74
2022-09-26T06:28:16.852Z,91.63
2022-09-26T06:29:16.805Z,91.39
2022-09-26T06:30:16.828Z,91.28
2022-09-26T06:31:16.992Z,91.08
2022-09-26T06:32:16.796Z,90.88
2022-09-26T06:33:16.768Z,90.77
2022-09-26T06:34:16.772Z,90.67
2022-09-26T06:35:16.744Z,90.53
2022-09-26T06:36:16.747Z,90.22
2022-09-26T06:37:16.725Z,90.01
2022-09-26T06:38:16.751Z,89.81
2022-09-26T06:39:16.809Z,89.81
2022-09-26T06:40:16.819Z,89.81
2022-09-26T06:41:16.787Z,89.71
2022-09-26T06:42:16.670Z,89.71
2022-09-26T06:43:16.623Z,89.61
2022-09-26T06:44:16.664Z,89.51
2022-09-26T06:45:16.638Z,89.36
2022-09-26T06:46:16.704Z,89.26
2022-09-26T06:47:16.765Z,89.16
2022-09-26T06:48:18.958Z,88.75
2022-09-26T06:49:17.577Z,88.75
2022-09-26T06:50:16.649Z,88.85
2022-09-26T06:51:16.545Z,88.85
2022-09-26T06:52:16.546Z,88.75
2022-09-26T06:53:16.531Z,88.34
2022-09-26T06:54:16.518Z,88.14
2022-09-26T06:55:16.485Z,88.10
2022-09-26T06:56:16.487Z,88.10
2022-09-26T06:57:16.508Z,87.90
2022-09-26T06:58:16.452Z,87.69
2022-09-26T06:59:16.635Z,87.79
2022-09-26T07:00:16.451Z,87.79
2022-09-26T07:01:16.741Z,87.69
2022-09-26T07:02:16.455Z,87.79
2022-09-26T07:03:16.454Z,87.69
2022-09-26T07:04:16.392Z,87.79
2022-09-26T07:05:16.399Z,87.65
2022-09-26T07:06:16.394Z,87.65
2022-09-26T07:07:16.356Z,87.65
2022-09-26T07:08:16.320Z,87.65
2022-09-26T07:09:16.781Z,87.65
2022-09-26T07:10:16.292Z,87.55
2022-09-26T07:11:35.126Z,87.65
2022-09-26T07:12:17.266Z,87.65
2022-09-26T07:13:16.239Z,87.41
2022-09-26T07:14:16.261Z,87.10
2022-09-26T07:15:16.278Z,86.80
2022-09-26T07:16:16.265Z,86.80
2022-09-26T07:17:16.273Z,86.69
2022-09-26T07:18:16.242Z,86.59
2022-09-26T07:19:16.217Z,86.39
2022-09-26T07:20:16.274Z,86.49
2022-09-26T07:21:16.162Z,86.49
2022-09-26T07:22:16.157Z,86.59
2022-09-26T07:23:16.156Z,86.59
2022-09-26T07:24:16.153Z,86.39
2022-09-26T07:25:16.105Z,86.08
2022-09-26T07:26:16.132Z,86.19
2022-09-26T07:27:16.095Z,86.15
2022-09-26T07:28:16.146Z,85.84
2022-09-26T07:29:16.270Z,85.74
2022-09-26T07:30:16.096Z,85.64
2022-09-26T07:31:16.071Z,85.53
2022-09-26T07:32:16.048Z,85.33
2022-09-26T07:33:16.056Z,85.33
2022-09-26T07:34:18.569Z,85.03
2022-09-26T07:35:15.945Z,83.60
2022-09-26T07:36:16.002Z,83.70
2022-09-26T07:37:15.963Z,83.81
2022-09-26T07:38:15.954Z,83.60
2022-09-26T07:39:16.102Z,83.56
2022-09-26T07:40:15.923Z,83.46
2022-09-26T07:41:15.881Z,82.95
2022-09-26T07:42:15.875Z,82.24
2022-09-26T07:43:19.971Z,82.24
2022-09-26T07:45:28.012Z,82.45
2022-09-26T07:46:16.864Z,82.34
2022-09-26T07:47:16.232Z,82.40
2022-09-26T07:48:15.810Z,82.31
2022-09-26T07:49:16.163Z,82.00
2022-09-26T07:50:15.759Z,82.00
2022-09-26T07:51:15.753Z,81.59
2022-09-26T07:52:16.310Z,80.98
2022-09-26T07:53:15.762Z,80.44
2022-09-26T07:54:15.853Z,80.64
2022-09-26T07:55:15.697Z,80.44
2022-09-26T07:56:15.712Z,80.44
2022-09-26T07:57:15.675Z,80.44
2022-09-26T07:58:15.660Z,79.83
2022-09-26T07:59:15.639Z,79.63
2022-09-26T08:00:15.625Z,79.52
2022-09-26T08:01:15.668Z,79.63
2022-09-26T08:02:15.869Z,79.83
2022-09-26T08:03:15.711Z,79.72
2022-09-26T08:04:16.757Z,79.02
2022-09-26T08:05:16.444Z,79.32
2022-09-26T08:06:15.547Z,78.81
2022-09-26T08:07:15.587Z,78.81
2022-09-26T08:08:15.541Z,78.81
2022-09-26T08:09:15.703Z,78.51
2022-09-26T08:10:15.520Z,78.10
2022-09-26T08:11:15.485Z,77.80
2022-09-26T08:12:15.486Z,78.00
2022-09-26T08:13:15.521Z,78.10
2022-09-26T08:14:15.661Z,78.20
2022-09-26T08:15:15.454Z,78.00
2022-09-26T08:16:15.457Z,77.90
2022-09-26T08:17:15.427Z,77.90
2022-09-26T08:18:15.398Z,77.70
2022-09-26T08:19:15.633Z,77.80
2022-09-26T08:20:15.383Z,77.70
2022-09-26T08:21:15.374Z,77.39
2022-09-26T08:22:15.385Z,77.49
2022-09-26T08:23:15.370Z,76.98
2022-09-26T08:24:15.467Z,77.09
2022-09-26T08:25:15.340Z,77.05
2022-09-26T08:26:15.299Z,77.25
2022-09-26T08:27:15.370Z,76.85
2022-09-26T08:28:15.274Z,76.14
2022-09-26T08:29:15.269Z,76.34
2022-09-26T08:30:15.259Z,76.75
2022-09-26T08:31:15.280Z,76.85
2022-09-26T08:32:15.227Z,76.71
2022-09-26T08:33:15.205Z,76.61
2022-09-26T08:34:15.333Z,76.40
2022-09-26T08:35:15.266Z,76.10
2022-09-26T08:36:15.174Z,75.39
2022-09-26T08:37:15.179Z,74.85
2022-09-26T08:38:15.146Z,74.14
2022-09-26T08:39:15.313Z,74.14
2022-09-26T08:40:15.162Z,74.34
2022-09-26T08:41:15.114Z,74.34
2022-09-26T08:42:15.092Z,74.14
2022-09-26T08:43:15.063Z,74.04
2022-09-26T08:44:15.138Z,74.14
2022-09-26T08:45:15.053Z,74.24
2022-09-26T08:46:15.057Z,74.34
2022-09-26T08:47:15.043Z,74.30
2022-09-26T08:48:15.016Z,73.90
2022-09-26T08:49:15.031Z,73.49
2022-09-26T08:50:15.017Z,73.29
2022-09-26T08:51:14.978Z,73.46
2022-09-26T08:52:14.977Z,73.05
2022-09-26T08:53:14.972Z,72.85
2022-09-26T08:54:15.118Z,72.55
2022-09-26T08:55:14.972Z,72.45
2022-09-26T08:56:14.916Z,72.01
2022-09-26T08:57:14.903Z,71.80
2022-09-26T08:58:14.911Z,71.80
2022-09-26T08:59:14.887Z,71.88
2022-09-26T09:00:14.857Z,71.26
2022-09-26T09:01:14.901Z,71.47
2022-09-26T09:02:14.986Z,71.37
2022-09-26T09:03:14.968Z,71.26
2022-09-26T09:04:14.852Z,71.26
2022-09-26T09:05:14.889Z,71.16
2022-09-26T09:06:14.779Z,69.44
2022-09-26T09:07:14.794Z,68.33
2022-09-26T09:08:14.742Z,67.42
2022-09-26T09:09:14.744Z,66.41
2022-09-26T09:10:14.724Z,66.71
2022-09-26T09:11:14.724Z,67.11
2022-09-26T09:12:14.700Z,67.52
2022-09-26T09:13:15.388Z,67.62
2022-09-26T09:14:14.873Z,67.52
2022-09-26T09:15:25.417Z,67.11
2022-09-26T09:16:15.694Z,67.32
2022-09-26T09:17:14.643Z,67.01
2022-09-26T09:18:14.633Z,66.91
2022-09-26T09:19:14.617Z,65.50
2022-09-26T09:20:14.597Z,64.99
2022-09-26T09:21:14.587Z,65.29
2022-09-26T09:22:14.630Z,65.32
2022-09-26T09:23:14.653Z,65.73
2022-09-26T09:24:14.646Z,65.19
2022-09-26T09:25:14.538Z,65.09
2022-09-26T09:28:15.523Z,64.69
2022-09-26T09:29:19.269Z,64.79
2022-09-26T09:30:17.445Z,64.79
2022-09-26T09:31:14.501Z,64.76
2022-09-26T09:32:14.432Z,64.55
2022-09-26T09:33:14.695Z,64.86
2022-09-26T09:34:14.955Z,64.65
2022-09-26T09:35:14.408Z,64.86
2022-09-26T09:36:14.396Z,64.55
2022-09-26T09:37:14.374Z,64.15
2022-09-26T09:38:14.353Z,63.51
2022-09-26T09:39:14.366Z,63.01
2022-09-26T09:40:14.395Z,62.73
2022-09-26T09:41:14.337Z,62.73
2022-09-26T09:42:14.328Z,61.90
2022-09-26T09:43:14.288Z,60.48
2022-09-26T09:44:14.516Z,60.50
2022-09-26T09:45:14.257Z,60.50
2022-09-26T09:46:14.328Z,60.81
2022-09-26T09:47:14.320Z,60.88
2022-09-26T09:48:14.231Z,60.68
2022-09-26T09:49:14.216Z,60.38
2022-09-26T09:50:14.190Z,60.98
2022-09-26T09:51:14.206Z,61.29
2022-09-26T09:52:14.223Z,61.49
2022-09-26T09:53:14.148Z,61.69
2022-09-26T09:54:14.236Z,61.79
2022-09-26T09:55:14.118Z,61.90
2022-09-26T09:56:14.130Z,61.69
2022-09-26T09:57:14.161Z,61.39
2022-09-26T09:58:14.136Z,62.10
2022-09-26T09:59:14.086Z,62.90
2022-09-26T10:00:14.067Z,62.37
2022-09-26T10:01:14.069Z,62.07
2022-09-26T10:02:14.057Z,61.56
2022-09-26T10:03:14.096Z,61.76
2022-09-26T10:04:14.228Z,60.85
2022-09-26T10:05:14.018Z,59.91
2022-09-26T10:06:45.669Z,59.84
2022-09-26T10:07:15.008Z,60.25
2022-09-26T10:08:13.978Z,60.62
2022-09-26T10:09:39.096Z,60.32
2022-09-26T10:10:15.046Z,60.49
2022-09-26T10:11:13.940Z,59.99
2022-09-26T10:12:13.947Z,59.78
2022-09-26T10:13:14.401Z,59.89
2022-09-26T10:14:14.140Z,59.99
2022-09-26T10:15:13.875Z,60.09
2022-09-26T10:16:13.934Z,60.39
2022-09-26T10:17:13.895Z,60.19
2022-09-26T10:18:29.266Z,59.99
2022-09-26T10:19:15.815Z,60.09
2022-09-26T10:20:13.800Z,60.39
2022-09-26T10:21:13.792Z,59.38
2022-09-26T10:22:13.797Z,59.58
2022-09-26T10:23:13.795Z,59.99
2022-09-26T10:24:13.785Z,59.99
2022-09-26T10:25:13.736Z,60.22
2022-09-26T10:26:13.719Z,60.12
2022-09-26T10:27:13.712Z,60.32
2022-09-26T10:28:13.713Z,60.32
2022-09-26T10:29:13.730Z,60.32
2022-09-26T10:30:13.736Z,60.35
2022-09-26T10:31:13.700Z,60.55
2022-09-26T10:32:13.656Z,61.05
2022-09-26T10:33:13.633Z,60.75
2022-09-26T10:34:13.749Z,61.16
2022-09-26T10:35:17.474Z,61.03
2022-09-26T10:36:14.594Z,61.23
2022-09-26T10:37:13.622Z,61.13
2022-09-26T10:38:13.597Z,60.93
2022-09-26T10:39:13.595Z,60.02
2022-09-26T10:40:13.630Z,59.94
2022-09-26T10:41:13.548Z,59.54
2022-09-26T10:42:13.525Z,59.91
2022-09-26T10:43:13.599Z,59.71
2022-09-26T10:44:13.575Z,59.51
2022-09-26T10:45:13.508Z,59.11
2022-09-26T10:46:13.586Z,58.60
2022-09-26T10:47:13.624Z,58.50
2022-09-26T10:48:13.445Z,59.00
2022-09-26T10:49:13.452Z,59.41
2022-09-26T10:50:13.602Z,59.31
2022-09-26T10:51:13.424Z,59.61
2022-09-26T10:52:18.221Z,59.91
2022-09-26T10:53:14.388Z,59.91
2022-09-26T10:54:13.443Z,59.81
2022-09-26T10:55:13.404Z,60.12
2022-09-26T10:56:13.379Z,60.32
2022-09-26T10:57:13.345Z,60.32
2022-09-26T10:58:14.156Z,60.62
2022-09-26T10:59:13.539Z,60.72
2022-09-26T11:00:13.288Z,60.32
2022-09-26T11:01:13.346Z,60.32
2022-09-26T11:02:13.368Z,59.84
2022-09-26T11:03:13.323Z,60.25
2022-09-26T11:04:13.584Z,59.84
2022-09-26T11:05:13.223Z,60.25
2022-09-26T11:06:13.222Z,60.27
2022-09-26T11:07:13.231Z,60.17
2022-09-26T11:08:13.192Z,60.07
2022-09-26T11:09:13.212Z,60.45
2022-09-26T11:10:13.269Z,60.38
2022-09-26T11:11:13.144Z,60.58
2022-09-26T11:12:13.199Z,60.68
2022-09-26T11:13:13.172Z,60.65
2022-09-26T11:14:13.188Z,60.65
2022-09-26T11:15:13.133Z,60.65
2022-09-26T11:16:13.373Z,60.85
2022-09-26T11:17:13.091Z,60.32
2022-09-26T11:18:13.117Z,60.25
2022-09-26T11:19:13.085Z,60.52
2022-09-26T11:20:13.107Z,60.12
2022-09-26T11:21:27.865Z,60.22
2022-09-26T11:22:14.007Z,60.32
2022-09-26T11:23:13.004Z,60.22
2022-09-26T11:24:13.041Z,60.42
2022-09-26T11:25:35.772Z,60.02
2022-09-26T11:27:23.518Z,60.12
2022-09-26T11:28:44.576Z,59.81
2022-09-26T11:30:34.417Z,59.58
2022-09-26T11:31:59.478Z,59.58
2022-09-26T11:32:56.060Z,59.38
2022-09-26T11:33:55.070Z,58.98
2022-09-26T11:35:51.463Z,58.25
2022-09-26T11:36:44.550Z,58.14
2022-09-26T11:37:44.562Z,58.54
2022-09-26T11:38:44.635Z,58.45
2022-09-26T11:39:44.547Z,57.84
2022-09-26T11:40:44.585Z,57.43
2022-09-26T11:41:44.488Z,57.43
2022-09-26T11:42:44.498Z,56.73
2022-09-26T11:43:44.489Z,57.03
2022-09-26T11:44:44.452Z,57.14
2022-09-26T11:45:47.435Z,57.03
2022-09-26T11:46:44.515Z,57.03
2022-09-26T11:47:44.421Z,57.10
2022-09-26T11:48:44.411Z,56.90
2022-09-26T11:49:44.392Z,57.21
2022-09-26T11:50:44.415Z,57.21
2022-09-26T11:51:44.372Z,58.32
2022-09-26T11:52:48.857Z,57.51
2022-09-26T11:53:45.382Z,57.31
2022-09-26T11:54:44.361Z,57.61
2022-09-26T11:55:44.311Z,57.61
2022-09-26T11:56:44.320Z,57.64
2022-09-26T11:57:44.330Z,57.74
2022-09-26T11:58:44.362Z,57.94
2022-09-26T11:59:44.282Z,57.97
2022-09-26T12:00:44.242Z,58.27
2022-09-26T12:01:44.257Z,58.67
2022-09-26T12:02:44.401Z,58.85
2022-09-26T12:03:44.318Z,58.95
2022-09-26T12:04:44.222Z,58.78
2022-09-26T12:05:44.259Z,58.47
2022-09-26T12:06:44.179Z,58.87
2022-09-26T12:07:44.167Z,58.87
2022-09-26T12:08:44.185Z,59.18
2022-09-26T12:09:44.158Z,59.48
2022-09-26T12:10:44.145Z,59.28
2022-09-26T12:11:44.139Z,59.08
2022-09-26T12:12:44.117Z,59.18
2022-09-26T12:13:44.091Z,59.15
2022-09-26T12:14:44.599Z,58.95
2022-09-26T12:15:44.082Z,58.52
2022-09-26T12:16:44.050Z,58.12
2022-09-26T12:17:44.133Z,58.42
2022-09-26T12:18:44.075Z,58.52
2022-09-26T12:19:45.268Z,58.62
2022-09-26T12:20:44.007Z,58.29
2022-09-26T12:21:44.003Z,58.19
2022-09-26T12:22:43.978Z,58.16
2022-09-26T12:23:44.048Z,57.28
2022-09-26T12:24:43.959Z,57.68
2022-09-26T12:25:43.960Z,57.28
2022-09-26T12:26:43.952Z,57.61
2022-09-26T12:27:43.937Z,57.51
2022-09-26T12:28:43.917Z,57.41
2022-09-26T12:29:43.904Z,57.71
2022-09-26T12:30:43.918Z,57.31
2022-09-26T12:31:43.934Z,57.51
2022-09-26T12:32:43.866Z,57.91
2022-09-26T12:33:43.850Z,58.12
2022-09-26T12:34:43.825Z,58.14
2022-09-26T12:35:43.817Z,57.94
2022-09-26T12:36:43.799Z,58.14
2022-09-26T12:37:43.794Z,58.27
2022-09-26T12:38:43.786Z,58.27
2022-09-26T12:39:43.749Z,58.27
2022-09-26T12:40:43.853Z,58.47
2022-09-26T12:41:43.735Z,58.78
2022-09-26T12:42:43.724Z,58.47
2022-09-26T12:43:43.713Z,57.67
2022-09-26T12:44:44.907Z,57.46
2022-09-26T12:45:43.676Z,57.76
2022-09-26T12:46:43.772Z,57.34
2022-09-26T12:47:43.667Z,57.23
2022-09-26T12:48:43.688Z,57.34
2022-09-26T12:49:43.731Z,56.73
2022-09-26T12:50:43.615Z,56.63
2022-09-26T12:51:43.586Z,56.73
2022-09-26T12:52:43.638Z,56.20
2022-09-26T12:53:43.596Z,56.10
2022-09-26T12:54:43.571Z,55.79
2022-09-26T12:55:43.551Z,56.10
2022-09-26T12:56:43.533Z,55.90
2022-09-26T12:57:43.604Z,56.10
2022-09-26T12:58:43.523Z,56.10